Etusivu
METAR-TAF:

METAR-TAF

Lentoasemat :

Hongkong, Kiina

Hongkongin kansainvälinen lentoasema

Leveyspiiri: 22-19N, Pituuspiiri: 113-55E, korkeus merenpinnasta: 9 m

Tämänhetkinen sää

Tämä raportti tehtiin 22 minuuttia sitten, kello 01.30 UTC
Tuuli 10 kn pohjoisesta
Lämpötila 17°C
Kosteus 63%
Ilmanpaine 1023 hPa
Näkyvyys: 9000 m
Muutamia pilviä 3000 ft:n korkeudessa

METAR: VHHH 250130Z 01010KT 9000 FEW030 17/10 Q1023 NOSIG

Aika: 09:52 (01:52 UTC)

Sääennuste

Tämä raportti tehtiin 2 tuntia ja 52 minuuttia sitten, kello 23.00 UTC
Ennuste voimassa 25. päivästä klo 00 UTC - 26. päivään klo 06 UTC
Tuuli 10 kn pohjoisesta/koillisesta
Näkyvyys: 9000 m
Muutamia pilviä 2500 ft:n korkeudessa
Hajanaisia pilviä 4000 ft:n korkeudessa
Ajoittain
25. päivästä klo 03 UTC - 25. päivään klo 09 UTC
Näkyvyys: 4000 m
sadetta

TAF: VHHH 242300Z 2500/2606 03010KT 9000 FEW025 SCT040 TX18/2506Z TX19/2606Z TN15/2523Z TEMPO 2503/2509 4000 RA

Säähavainnot ja -ennusteet yli 4000 lentoasemalta (METAR- ja TAF-raportit).

Käytössä olevat sääasemat on merkitty karttaan keltaisilla ja punaisilla pisteillä.

Aseta hiiri pisteen päälle nähdäksesi sääaseman nimen.

Klikkaa sitten nähdäksesi säähavainnot ja -ennusteet.

Kartan vaihtaminen: klikkaa mustalla rastilla varustettuja vihreitä pisteitä, niin voit zoomata sisään; viivalla varustettua vihreää pistettä, niin voit zoomata ulos tai vihreitä nuolia, niin pääset viereisille kartoille.


METAR-TAF: